sim
Sign-in with your pilot id or email,
or register
Callsign
Passwort

Schedule Details

Flight Number: RYR2524 (2)
Departure: Malaga Costa Del Sol Airport (LEMG) at 09:00
Arrival: Gothenburg Landvetter Airport (ESGG) at 13:00
Route: Ryanair Passenger Schedule. Enter filed route here before submitting Pirep.

Weather Information
Getting current METAR information for LEMG 200230Z 29003KT 9999 FEW015 BKN035 17/14 Q1017 NOSIG
Getting current METAR information for ESGG 200250Z 14010KT 9999 SCT038 04/03 Q1015

Schedule Frequency

Route Map